100LL.CA
Aviation Fuel Pricing for Canadians
Please upgrade your browser - Tested with IE9, FireFox, Chrome, Safari

Fuel Airports Other Help
Prices Economy Info List METAR/TAF Kneeboard Help

Reference Airport: GORE BAY-MANITOULIN, ON
N 45 53 03  W 082 34 06
Provinces to show:

CYZE GORE BAY-MANITOULIN, ON
WEATHER
METARCYZE 131900Z AUTO 30021G30KT 9SM CLR 09/01 A2979 RMK SLP096
TAFTAF CYZE 131940Z 1320/1322 30020G30KT P6SM SKC RMK FCST BASED ON AUTO OBS. NXT FCST BY 141000Z
OTHER SITES

FlightAware

FltPlan

Google Maps

SkyVector
FUEL
FBO 100LL
member
100LL
public
JETA MOGAS
Opr (2022-05-06)2.6452.588
Canada Flight Supplement - CYZE
(opens in new tab/window)


Please Send Updates!

Desktop Version ]  [ Mobile Version ]  [ Disclaimer ]